FR5ZU Weather Reports


Display with metric or nautical units.
time (UTC)temp
F
wind
direction
speed
MPH
gust
MPH
rain 1hr
in
rain 24hr
in
rain mn
in
humidity
%
barometer
mb
20190818080159 68 128 4.0 8.0 0.00 0.00 0.00 74 1018.1
20190818074602 68 161 2.0 5.0 0.00 0.00 0.00 72 1018.2
20190818073027 67 135 3.0 7.0 0.00 0.00 0.00 71 1018.4
20190818071610 67 196 3.0 7.0 0.00 0.00 0.00 70 1018.5
20190818070054 67 143 2.0 7.0 0.00 0.00 0.00 71 1018.7
20190818064538 66 127 4.0 8.0 0.00 0.00 0.00 61 1019.0
20190818063031 67 149 5.0 8.0 0.00 0.00 0.00 54 1019.1
20190818061549 67 152 2.0 5.0 0.00 0.00 0.00 54 1019.0
20190818060009 67 107 2.0 5.0 0.00 0.00 0.00 45 1019.0
20190818054508 67 97 2.0 4.0 0.00 0.00 0.00 49 1019.2
20190818053209 67 124 2.0 4.0 0.00 0.00 0.00 47 1019.0
20190818051659 66 109 0.0 3.0 0.00 0.00 0.00 48 1018.9
20190818050222 66 55 0.0 0.0 0.00 0.00 0.00 56 1018.9
20190818044834 64 278 0.0 0.0 0.00 0.00 0.00 49 1018.9
20190818043207 63 278 0.0 0.0 0.00 0.00 0.00 50 1018.8
20190818041642 62 278 0.0 0.0 0.00 0.00 0.00 54 1018.8
20190818040134 60 278 0.0 0.0 0.00 0.00 0.00 52 1018.7
20190818034633 59 278 0.0 0.0 0.00 0.00 0.00 51 1018.6
20190818033106 58 278 0.0 0.0 0.00 0.00 0.00 53 1018.5
20190818031631 57 278 0.0 0.0 0.00 0.00 0.00 51 1018.1
20190818030102 55 278 0.0 0.0 0.00 0.00 0.00 59 1018.0
20190818024615 55 278 0.0 0.0 0.00 0.00 0.00 55 1017.8
20190818023105 55 278 0.0 0.0 0.00 0.00 0.00 54 1017.8
20190818021623 55 278 0.0 0.0 0.00 0.00 0.00 56 1017.6
20190818020110 54 278 0.0 0.0 0.00 0.00 0.00 62 1017.6
20190818014534 54 278 0.0 0.0 0.00 0.00 0.00 61 1017.5
20190818013053 54 278 0.0 0.0 0.00 0.00 0.00 62 1017.2
20190818011550 54 278 0.0 0.0 0.00 0.00 0.00 67 1017.2
20190818010105 55 278 0.0 0.0 0.00 0.00 0.00 65 1017.1
20190818004524 55 278 0.0 0.0 0.00 0.00 0.00 66 1017.2
20190818003034 54 278 0.0 0.0 0.00 0.00 0.00 66 1017.3
20190818001602 55 278 0.0 0.0 0.00 0.00 0.00 68 1017.3
20190818000042 55 278 0.0 0.0 0.00 0.00 0.00 68 1017.6
20190817234516 55 278 0.0 0.0 0.00 0.00 0.00 67 1017.6
20190817233123 55 259 0.0 0.0 0.00 0.00 0.00 64 1017.7
20190817231544 55 259 0.0 0.0 0.00 0.00 0.00 62 1017.8
20190817230027 55 259 0.0 0.0 0.00 0.00 0.00 69 1017.9
20190817224530 55 259 0.0 0.0 0.00 0.00 0.00 67 1018.0
20190817223016 55 259 0.0 0.0 0.00 0.00 0.00 67 1018.2
20190817221514 55 259 0.0 0.0 0.00 0.00 0.00 67 1018.4
20190817220007 55 242 0.0 0.0 0.00 0.00 0.00 65 1018.7
20190817214514 54 242 0.0 0.0 0.00 0.00 0.00 67 1018.7
20190817213003 54 242 0.0 0.0 0.00 0.00 0.00 70 1018.9
20190817211704 54 242 0.0 0.0 0.00 0.00 0.00 73 1018.9
20190817210315 54 242 0.0 0.0 0.00 0.00 0.00 73 1019.1
20190817204703 55 242 0.0 0.0 0.00 0.00 0.00 81 1019.2
20190817203149 55 242 0.0 0.0 0.00 0.00 0.00 75 1019.2
20190817201622 54 242 0.0 0.0 0.00 0.00 0.00 77 1019.2
20190817200129 54 242 0.0 0.0 0.00 0.00 0.00 82 1019.3
20190817194609 55 242 0.0 0.0 0.00 0.00 0.00 87 1019.3
20190817193246 55 242 0.0 0.0 0.00 0.00 0.00 83 1019.5
20190817191713 55 242 0.0 0.0 0.00 0.00 0.00 86 1019.3
20190817190117 55 242 0.0 0.0 0.00 0.00 0.00 83 1019.3
20190817184612 55 242 0.0 0.0 0.00 0.00 0.00 86 1019.3
20190817183322 55 242 0.0 2.0 0.00 0.00 0.00 91 1019.2
20190817181812 56 154 0.0 0.0 0.00 0.00 0.00 95 1019.3
20190817180209 56 154 0.0 0.0 0.00 0.00 0.00 95 1019.3
20190817174857 56 154 0.0 0.0 0.00 0.00 0.00 93 1019.2
20190817173153 56 154 0.0 0.0 0.00 0.00 0.00 93 1019.2
20190817171743 57 154 0.0 0.0 0.00 0.00 0.00 95 1019.2
20190817170129 57 154 0.0 0.0 0.00 0.00 0.00 95 1019.1
20190817164631 57 154 0.0 0.0 0.00 0.00 0.00 95 1019.1
20190817163211 57 154 0.0 0.0 0.00 0.00 0.00 96 1019.0
20190817161635 57 154 0.0 0.0 0.00 0.00 0.00 96 1019.1
20190817160135 57 154 0.0 0.0 0.00 0.00 0.00 96 1019.0
20190817154620 57 154 0.0 0.0 0.00 0.00 0.00 95 1018.8
20190817153134 58 154 0.0 0.0 0.00 0.00 0.00 94 1018.6
20190817151636 58 154 0.0 0.0 0.00 0.00 0.00 95 1018.6
20190817150135 58 154 0.0 0.0 0.00 0.00 0.00 95 1018.6
20190817144544 58 154 0.0 0.0 0.00 0.00 0.00 94 1018.3
20190817143056 59 154 0.0 0.0 0.00 0.00 0.00 92 1018.2
20190817141610 60 154 0.0 0.0 0.00 0.00 0.00 91 1018.1
20190817140109 61 154 0.0 0.0 0.00 0.00 0.00 90 1017.8
20190817134557 61 154 0.0 0.0 0.00 0.00 0.00 89 1017.7
20190817133116 62 154 0.0 0.0 0.00 0.00 0.00 89 1017.6
20190817131618 62 154 0.0 0.0 0.00 0.00 0.00 89 1017.6
20190817130141 63 154 0.0 0.0 0.00 0.00 0.00 87 1017.7
20190817124614 63 154 0.0 2.0 0.00 0.00 0.00 85 1017.5
20190817123117 63 159 0.0 3.0 0.00 0.00 0.00 85 1017.4
20190817121553 63 202 1.0 3.0 0.00 0.00 0.00 84 1017.3
20190817120059 64 146 1.0 3.0 0.00 0.00 0.00 84 1017.4
20190817114550 64 130 0.0 5.0 0.00 0.00 0.00 83 1017.3
20190817113046 66 173 0.0 0.0 0.00 0.00 0.00 81 1017.2
20190817111543 67 137 1.0 4.0 0.00 0.00 0.00 79 1017.3
20190817110032 66 159 1.0 6.0 0.00 0.00 0.00 81 1017.2
20190817104609 66 147 3.0 7.0 0.00 0.00 0.00 79 1017.3
20190817103104 68 176 2.0 5.0 0.00 0.00 0.00 77 1017.3
20190817101538 67 166 1.0 6.0 0.00 0.00 0.00 77 1017.5
20190817100049 69 128 2.0 9.0 0.00 0.00 0.00 76 1017.7
20190817094602 70 223 1.0 8.0 0.00 0.00 0.00 74 1017.9
20190817093115 69 172 4.0 7.0 0.00 0.00 0.00 76 1017.8
20190817091537 69 146 4.0 8.0 0.00 0.00 0.00 77 1018.0
20190817090023 68 135 5.0 10.0 0.00 0.00 0.00 75 1018.5
20190817084535 69 147 5.0 12.0 0.00 0.00 0.00 74 1018.6
20190817083031 69 169 3.0 11.0 0.00 0.00 0.00 76 1019.0
20190817081543 68 140 5.0 10.0 0.00 0.00 0.00 75 1019.3